createdAt,value
2023-02-18T00:02:20.634Z,7.70
2023-02-18T00:12:22.567Z,8.45
2023-02-18T00:22:24.762Z,14.07
2023-02-18T00:32:26.635Z,9.77
2023-02-18T00:42:29.214Z,7.40
2023-02-18T00:52:30.990Z,10.60
2023-02-18T01:02:33.028Z,2.63
2023-02-18T01:12:35.398Z,5.93
2023-02-18T01:22:37.707Z,3.00
2023-02-18T01:32:42.422Z,6.72
2023-02-18T01:42:44.883Z,4.68
2023-02-18T01:52:47.172Z,5.38
2023-02-18T02:02:51.934Z,5.00
2023-02-18T02:13:13.333Z,10.13
2023-02-18T02:23:36.124Z,3.33
2023-02-18T02:33:48.913Z,2.03
2023-02-18T02:44:05.563Z,4.00
2023-02-18T02:54:28.883Z,3.47
2023-02-18T03:04:39.909Z,6.10
2023-02-18T03:15:10.215Z,7.25
2023-02-18T03:25:13.155Z,4.00
2023-02-18T03:35:18.222Z,5.20
2023-02-18T03:45:20.132Z,3.65
2023-02-18T03:55:23.563Z,2.58
2023-02-18T04:05:25.499Z,5.60
2023-02-18T04:15:27.825Z,2.17
2023-02-18T04:25:29.938Z,3.10
2023-02-18T04:35:32.147Z,7.85
2023-02-18T04:45:33.995Z,3.88
2023-02-18T04:55:35.770Z,2.58
2023-02-18T05:05:37.681Z,3.45
2023-02-18T05:15:39.750Z,2.28
2023-02-18T05:25:41.682Z,5.43
2023-02-18T05:35:43.568Z,4.20
2023-02-18T05:45:45.666Z,1.55
2023-02-18T05:55:47.513Z,8.77
2023-02-18T06:05:53.519Z,3.72
2023-02-18T06:15:55.837Z,3.88
2023-02-18T06:25:57.685Z,3.58
2023-02-18T06:36:02.239Z,3.38
2023-02-18T06:46:04.258Z,4.63
2023-02-18T06:56:06.491Z,3.22
2023-02-18T07:06:09.065Z,3.60
2023-02-18T07:16:11.401Z,5.88
2023-02-18T07:26:14.777Z,4.47
2023-02-18T07:36:16.585Z,5.47
2023-02-18T07:46:19.057Z,1.77
2023-02-18T07:56:21.045Z,5.93
2023-02-18T08:06:31.353Z,3.67
2023-02-18T08:16:34.274Z,6.22
2023-02-18T08:26:36.168Z,9.25
2023-02-18T08:36:39.906Z,4.22
2023-02-18T08:46:41.836Z,4.93
2023-02-18T08:56:43.662Z,11.30
2023-02-18T09:06:45.701Z,8.05
2023-02-18T09:16:47.521Z,6.13
2023-02-18T09:26:49.540Z,4.22
2023-02-18T09:36:51.740Z,8.10
2023-02-18T09:47:03.958Z,12.35
2023-02-18T09:57:12.311Z,4.60
2023-02-18T10:07:26.973Z,5.32
2023-02-18T10:17:32.573Z,7.80
2023-02-18T10:27:38.837Z,12.13
2023-02-18T10:38:08.567Z,5.72
2023-02-18T10:48:45.592Z,12.77
2023-02-18T10:58:47.958Z,9.63
2023-02-18T11:08:50.545Z,6.75
2023-02-18T11:18:52.428Z,13.40
2023-02-18T11:29:19.760Z,6.38
2023-02-18T11:39:27.750Z,16.40
2023-02-18T11:49:30.851Z,11.25
2023-02-18T11:59:35.476Z,9.23
2023-02-18T12:09:48.915Z,8.55
2023-02-18T12:20:05.254Z,3.15
2023-02-18T12:30:35.063Z,19.67
2023-02-18T12:40:52.922Z,22.63
2023-02-18T12:50:57.682Z,27.92
2023-02-18T13:01:09.072Z,31.27
2023-02-18T13:11:25.194Z,22.60
2023-02-18T13:21:27.995Z,28.90
2023-02-18T13:31:47.293Z,30.27
2023-02-18T13:41:51.808Z,40.93
2023-02-18T13:51:57.703Z,41.72
2023-02-18T14:02:34.554Z,41.70
2023-02-18T14:12:41.098Z,28.23
2023-02-18T14:22:49.199Z,22.88
2023-02-18T14:32:55.828Z,23.30
2023-02-18T14:43:45.658Z,27.98
2023-02-18T14:53:48.351Z,18.17
2023-02-18T15:03:52.908Z,28.35
2023-02-18T15:13:54.772Z,30.00
2023-02-18T15:24:08.213Z,20.35
2023-02-18T15:34:29.355Z,34.60
2023-02-18T15:44:34.521Z,21.20
2023-02-18T15:54:39.940Z,18.55
2023-02-18T16:04:45.807Z,20.05
2023-02-18T16:14:49.439Z,23.55
2023-02-18T16:25:01.208Z,13.77
2023-02-18T16:35:03.044Z,12.40
2023-02-18T16:45:05.040Z,14.45
2023-02-18T16:55:20.859Z,12.35
2023-02-18T17:05:27.456Z,15.15
2023-02-18T17:15:33.942Z,20.27
2023-02-18T17:25:39.070Z,12.95
2023-02-18T17:35:41.137Z,9.55
2023-02-18T17:45:50.471Z,12.35
2023-02-18T17:55:53.273Z,15.90
2023-02-18T18:05:55.045Z,8.02
2023-02-18T18:15:58.090Z,5.80
2023-02-18T18:26:00.434Z,7.90
2023-02-18T18:36:02.455Z,6.03
2023-02-18T18:46:04.459Z,6.45
2023-02-18T18:56:07.022Z,10.00
2023-02-18T19:06:10.804Z,5.90
2023-02-18T19:16:20.515Z,9.70
2023-02-18T19:36:24.211Z,3.05
2023-02-18T19:46:26.044Z,8.43
2023-02-18T19:56:27.880Z,2.38
2023-02-18T20:06:29.659Z,8.80
2023-02-18T20:16:31.509Z,4.07
2023-02-18T20:26:33.373Z,3.83
2023-02-18T20:36:35.366Z,3.65
2023-02-18T20:46:38.230Z,1.75
2023-02-18T20:56:40.362Z,6.40
2023-02-18T21:06:44.240Z,3.08
2023-02-18T21:16:46.048Z,6.18
2023-02-18T21:26:49.302Z,3.83
2023-02-18T21:36:51.213Z,6.45
2023-02-18T21:46:53.085Z,6.63
2023-02-18T21:56:56.239Z,6.07
2023-02-18T22:06:58.636Z,6.22
2023-02-18T22:17:00.730Z,5.30
2023-02-18T22:27:02.829Z,8.25
2023-02-18T22:37:04.741Z,10.73
2023-02-18T22:47:06.782Z,5.43
2023-02-18T22:57:08.556Z,10.15
2023-02-18T23:07:10.524Z,8.90
2023-02-18T23:17:12.376Z,9.65
2023-02-18T23:27:17.914Z,7.32
2023-02-18T23:37:20.008Z,2.42
2023-02-18T23:47:21.836Z,1.02
2023-02-18T23:57:23.648Z,4.07
